HE15 weather

Hulwan
Giza Governorate, Egypt

Public forecast

Using degrees Celsius for public forecast. Weather courtesy of forecast.io.

METAR (pilot weather report)

Closest report is Cairo International Airport, 18.4 nm (34.1 km) NNE. Retrieved 2019/04/21 15:30 UTC (27 minutes ago):

HECA 211530Z 32014KT 9999 FEW025 19/03 Q1018 NOSIG

TAF (pilot weather forecast)

Closest forecast is Cairo International Airport, 18.4 nm (34.1 km) NNE. Retrieved 2019/04/21 12:57 UTC (3 hours ago):

TAF HECA 211100Z 2112/2218 33010KT 9999 SCT025 TEMPO 2203/2206 VRB03KT 4000 HZ NSC